Time;durP1;ratioP1;P1;durP2;ratioP2;P2;SDS_P1;SDS_P2;PMS_P1;PMS_P2;Temp;Humidity;BMP_temperature;BMP_pressure;BME280_temperature;BME280_humidity;BME280_pressure;Samples;Min_cycle;Max_cycle;Signal;HPM_P1;HPM_P2
2024/04/15 00:00:32;;;;;;;1.77;0.60;;;16.50;90.20;;;;;;5412350;26;20068;-82
2024/04/15 00:02:58;;;;;;;1.27;0.60;;;16.40;89.90;;;;;;5412840;26;20336;-84
2024/04/15 00:05:24;;;;;;;1.15;0.70;;;16.50;90.00;;;;;;5412425;26;20020;-81
2024/04/15 00:07:50;;;;;;;1.73;0.60;;;16.50;90.00;;;;;;5413493;26;19992;-82
2024/04/15 00:10:16;;;;;;;1.00;0.60;;;16.50;90.00;;;;;;5411182;26;20878;-82
2024/04/15 00:12:41;;;;;;;1.10;0.50;;;16.40;90.00;;;;;;5413148;26;20002;-82
2024/04/15 00:15:07;;;;;;;1.75;0.60;;;16.40;90.20;;;;;;5381346;26;20072;-82
2024/04/15 00:17:32;;;;;;;1.13;0.60;;;16.30;90.00;;;;;;5412738;26;20002;-83
2024/04/15 00:19:58;;;;;;;1.70;0.60;;;16.40;90.00;;;;;;5412579;26;19991;-81
2024/04/15 00:22:24;;;;;;;0.98;0.50;;;16.40;90.00;;;;;;5412664;26;20427;-83
2024/04/15 00:24:49;;;;;;;1.23;0.60;;;16.40;90.00;;;;;;5412347;26;20032;-81
2024/04/15 00:27:15;;;;;;;1.35;0.60;;;16.50;90.00;;;;;;5381129;26;20671;-84
2024/04/15 00:29:40;;;;;;;1.50;0.60;;;16.40;90.00;;;;;;5412251;26;20490;-84
2024/04/15 00:32:06;;;;;;;1.23;0.70;;;16.40;90.00;;;;;;5412981;26;19995;-81
2024/04/15 00:34:32;;;;;;;1.25;0.50;;;16.40;90.00;;;;;;5380725;26;20640;-82
2024/04/15 00:36:58;;;;;;;0.60;0.50;;;16.50;90.00;;;;;;5381253;26;19992;-82
2024/04/15 00:39:27;;;;;;;1.50;0.63;;;16.30;90.00;;;;;;5380719;26;19995;-82
2024/04/15 00:41:53;;;;;;;1.48;0.70;;;16.30;90.00;;;;;;5380705;26;19996;-82
2024/04/15 00:44:18;;;;;;;2.00;0.63;;;16.40;90.00;;;;;;5380979;26;20073;-82
2024/04/15 00:46:44;;;;;;;1.55;0.60;;;16.40;90.00;;;;;;5380937;26;19995;-83
2024/04/15 00:49:11;;;;;;;1.65;0.60;;;16.40;90.00;;;;;;5380573;26;19995;-84
2024/04/15 00:51:41;;;;;;;2.13;0.60;;;16.40;90.00;;;;;;5411715;26;20003;-83
2024/04/15 00:54:08;;;;;;;1.15;0.60;;;16.40;90.00;;;;;;5412342;26;20041;-83
2024/04/15 00:56:34;;;;;;;0.90;0.57;;;16.50;90.10;;;;;;5411617;26;20019;-81
2024/04/15 00:59:00;;;;;;;2.85;0.60;;;16.40;90.00;;;;;;5380729;26;20046;-83
2024/04/15 01:01:26;;;;;;;1.48;0.68;;;16.40;90.00;;;;;;5380237;26;20007;-82
2024/04/15 01:03:53;;;;;;;1.15;0.60;;;16.40;90.00;;;;;;5380735;26;20010;-84
2024/04/15 01:06:18;;;;;;;2.42;0.73;;;16.40;90.00;;;;;;5411726;26;20081;-82
2024/04/15 01:08:44;;;;;;;1.90;0.52;;;16.40;90.00;;;;;;5380576;26;19995;-83
2024/04/15 01:11:11;;;;;;;1.25;0.65;;;16.50;90.10;;;;;;5411030;26;20006;-82
2024/04/15 01:13:37;;;;;;;1.25;0.60;;;16.40;90.00;;;;;;5380330;26;20003;-81
2024/04/15 01:16:03;;;;;;;1.95;0.70;;;16.40;90.00;;;;;;5411457;26;20088;-83
2024/04/15 01:18:29;;;;;;;1.52;0.50;;;16.40;90.00;;;;;;5411714;26;20002;-83
2024/04/15 01:20:56;;;;;;;1.25;0.52;;;16.40;90.00;;;;;;5411716;26;19999;-85
2024/04/15 01:23:23;;;;;;;2.40;0.70;;;16.40;90.00;;;;;;5383494;26;19999;-84
2024/04/15 01:25:49;;;;;;;0.73;0.50;;;16.40;90.00;;;;;;5383724;26;20018;-83
2024/04/15 01:28:19;;;;;;;0.82;0.55;;;16.40;90.00;;;;;;5415171;26;20043;-82
2024/04/15 01:30:44;;;;;;;0.88;0.50;;;16.40;90.00;;;;;;5415106;26;20522;-83
2024/04/15 01:33:10;;;;;;;1.35;0.60;;;16.40;90.00;;;;;;5383564;26;19996;-82
2024/04/15 01:35:36;;;;;;;1.42;0.70;;;16.30;90.00;;;;;;5414926;26;20006;-83
2024/04/15 01:38:02;;;;;;;1.35;0.70;;;16.40;90.00;;;;;;5414978;26;19995;-83
2024/04/15 01:40:28;;;;;;;1.77;0.60;;;16.40;90.00;;;;;;5414671;26;20708;-82
2024/04/15 01:42:54;;;;;;;1.85;0.60;;;16.30;90.00;;;;;;5383507;26;20739;-85
2024/04/15 01:45:19;;;;;;;2.00;0.73;;;16.40;90.00;;;;;;5383277;26;19996;-84
2024/04/15 01:47:46;;;;;;;1.65;0.63;;;16.40;90.00;;;;;;5383286;26;19996;-85
2024/04/15 01:50:13;;;;;;;1.35;0.60;;;16.40;90.10;;;;;;5383135;26;20049;-82
2024/04/15 01:52:38;;;;;;;1.00;0.45;;;16.40;90.10;;;;;;5414390;26;20000;-81
2024/04/15 01:55:04;;;;;;;1.48;0.60;;;16.40;90.10;;;;;;5383122;26;20006;-84
2024/04/15 01:57:30;;;;;;;2.28;0.80;;;16.40;90.10;;;;;;5414554;26;19995;-80
2024/04/15 01:59:55;;;;;;;0.70;0.50;;;16.40;90.10;;;;;;5414231;26;19999;-83
2024/04/15 02:02:21;;;;;;;0.88;0.60;;;16.40;90.10;;;;;;5414429;26;19999;-81
2024/04/15 02:04:46;;;;;;;1.27;0.50;;;16.40;90.10;;;;;;5383307;26;19992;-83
2024/04/15 02:07:12;;;;;;;2.25;0.65;;;16.40;90.10;;;;;;5414234;26;20371;-82
2024/04/15 02:09:37;;;;;;;1.90;0.75;;;16.40;90.10;;;;;;5413993;26;20348;-83
2024/04/15 02:12:03;;;;;;;1.73;0.60;;;16.40;90.10;;;;;;5414334;26;19996;-84
2024/04/15 02:14:29;;;;;;;1.15;0.70;;;16.40;90.10;;;;;;5414705;26;19995;-83
2024/04/15 02:16:55;;;;;;;1.35;0.70;;;16.40;90.10;;;;;;5382875;26;20413;-81
2024/04/15 02:19:20;;;;;;;1.65;0.70;;;16.30;90.30;;;;;;5383184;26;19999;-83
2024/04/15 02:21:46;;;;;;;0.50;0.50;;;16.40;90.10;;;;;;5382879;26;20007;-85
2024/04/15 02:24:13;;;;;;;1.75;0.60;;;16.20;90.00;;;;;;5414507;26;20000;-83
2024/04/15 02:26:39;;;;;;;1.40;0.77;;;16.50;90.10;;;;;;5414123;26;20010;-85
2024/04/15 02:29:05;;;;;;;1.52;0.70;;;16.30;90.10;;;;;;5382646;26;20011;-82
2024/04/15 02:31:30;;;;;;;1.63;0.60;;;16.40;90.10;;;;;;5413814;26;19992;-81
2024/04/15 02:33:56;;;;;;;0.98;0.50;;;16.30;90.10;;;;;;5413743;26;19999;-83
2024/04/15 02:36:22;;;;;;;1.85;0.60;;;16.30;90.10;;;;;;5382649;26;20003;-83
2024/04/15 02:38:49;;;;;;;2.10;0.60;;;16.40;90.10;;;;;;5382542;26;19999;-83
2024/04/15 02:41:15;;;;;;;1.50;0.60;;;16.40;90.10;;;;;;5382714;26;20024;-83
2024/04/15 02:43:41;;;;;;;1.15;0.60;;;16.40;90.10;;;;;;5382487;26;20046;-81
2024/04/15 02:46:06;;;;;;;1.75;0.70;;;16.40;90.10;;;;;;5382788;26;20816;-83
2024/04/15 02:48:32;;;;;;;1.70;0.60;;;16.40;90.10;;;;;;5382205;26;19999;-82
2024/04/15 02:50:59;;;;;;;2.28;0.70;;;16.40;90.10;;;;;;5413508;26;19996;-83
2024/04/15 02:53:25;;;;;;;1.35;0.50;;;16.40;90.30;;;;;;5382638;26;19996;-82
2024/04/15 02:55:53;;;;;;;1.63;0.70;;;16.40;90.10;;;;;;5414263;26;20011;-83
2024/04/15 02:58:18;;;;;;;0.93;0.70;;;16.30;90.00;;;;;;5382334;26;20325;-84
2024/04/15 03:00:44;;;;;;;1.27;0.60;;;16.20;90.00;;;;;;5412933;26;20030;-82
2024/04/15 03:03:10;;;;;;;2.25;0.70;;;16.40;90.10;;;;;;5382240;26;19999;-84
2024/04/15 03:05:43;;;;;;;0.50;0.40;;;16.30;90.10;;;;;;5413262;26;20007;-83
2024/04/15 03:08:09;;;;;;;1.65;0.60;;;16.40;90.10;;;;;;5413294;26;19999;-84
2024/04/15 03:10:35;;;;;;;1.40;0.70;;;16.40;90.10;;;;;;5413032;26;20032;-83
2024/04/15 03:13:00;;;;;;;0.85;0.70;;;16.40;90.10;;;;;;5382229;26;20027;-85
2024/04/15 03:15:26;;;;;;;1.52;0.77;;;16.40;90.10;;;;;;5382155;26;20905;-83
2024/04/15 03:17:52;;;;;;;1.08;0.50;;;16.30;90.10;;;;;;5382300;26;20008;-84
2024/04/15 03:20:17;;;;;;;0.95;0.60;;;16.40;90.10;;;;;;5414401;26;19995;-83
2024/04/15 03:22:49;;;;;;;0.93;0.60;;;16.30;90.00;;;;;;5416306;26;20007;-84
2024/04/15 03:25:22;;;;;;;1.23;0.80;;;16.30;90.00;;;;;;5418509;26;19999;-84
2024/04/15 03:27:48;;;;;;;1.73;0.90;;;16.30;90.00;;;;;;5447084;26;20044;-85
2024/04/15 03:30:14;;;;;;;2.00;0.63;;;16.30;90.10;;;;;;5417400;26;20003;-86
2024/04/15 03:32:40;;;;;;;2.53;0.60;;;16.30;90.00;;;;;;5416969;26;20864;-84
2024/04/15 03:35:11;;;;;;;1.85;0.70;;;16.30;90.10;;;;;;5418443;26;19995;-85
2024/04/15 03:37:37;;;;;;;2.40;0.70;;;16.30;90.00;;;;;;5449054;26;20088;-85
2024/04/15 03:40:03;;;;;;;1.73;0.90;;;16.30;90.00;;;;;;5453525;26;19999;-84
2024/04/15 03:42:28;;;;;;;2.17;0.70;;;16.30;90.10;;;;;;5421615;26;19995;-87
2024/04/15 03:44:54;;;;;;;1.70;0.75;;;16.30;90.00;;;;;;5451457;26;20009;-85
2024/04/15 03:47:20;;;;;;;1.55;0.70;;;16.40;90.00;;;;;;5456584;26;20002;-85
2024/04/15 03:49:46;;;;;;;1.25;0.57;;;16.40;90.10;;;;;;5420915;26;20019;-85
2024/04/15 03:52:11;;;;;;;1.52;0.70;;;16.30;90.00;;;;;;5420600;26;19987;-86
2024/04/15 03:54:38;;;;;;;1.73;0.82;;;16.20;90.00;;;;;;5453454;26;19990;-84
2024/04/15 03:57:06;;;;;;;1.45;0.70;;;16.30;90.00;;;;;;5451848;26;19990;-84
2024/04/15 03:59:32;;;;;;;1.42;0.80;;;16.30;90.00;;;;;;5420245;26;20046;-85
2024/04/15 04:01:57;;;;;;;1.65;0.80;;;16.30;90.00;;;;;;5451869;26;19995;-83
2024/04/15 04:04:23;;;;;;;1.55;0.65;;;16.30;90.00;;;;;;5420052;26;19999;-85
2024/04/15 04:06:52;;;;;;;1.45;0.70;;;16.40;90.00;;;;;;5452685;26;20003;-83
2024/04/15 04:09:17;;;;;;;1.15;0.60;;;16.30;90.00;;;;;;5420649;26;19998;-84
2024/04/15 04:11:43;;;;;;;1.50;0.85;;;16.20;90.20;;;;;;5453159;26;20339;-86
2024/04/15 04:14:08;;;;;;;1.52;0.82;;;16.30;90.00;;;;;;5452724;26;20014;-86
2024/04/15 04:16:37;;;;;;;1.30;0.80;;;16.30;90.00;;;;;;5453859;26;19999;-86
2024/04/15 04:19:02;;;;;;;2.13;0.70;;;16.30;90.00;;;;;;5452639;26;19995;-88
2024/04/15 04:21:28;;;;;;;1.45;0.75;;;16.30;90.00;;;;;;5422119;26;20327;-88
2024/04/15 04:23:53;;;;;;;1.17;0.80;;;16.30;90.00;;;;;;5422869;26;20003;-87
2024/04/15 04:26:19;;;;;;;2.45;0.80;;;16.30;90.00;;;;;;5421059;26;20333;-87
2024/04/15 04:28:45;;;;;;;2.05;0.90;;;16.30;90.00;;;;;;5452394;26;20063;-86
2024/04/15 04:31:16;;;;;;;;;;;16.30;90.00;;;;;;5452664;26;20324;-87
2024/04/15 04:33:42;;;;;;;1.67;0.80;;;16.20;89.90;;;;;;5420607;26;19931;-87
2024/04/15 04:36:08;;;;;;;1.85;0.82;;;16.30;90.00;;;;;;5421415;26;20427;-87
2024/04/15 04:38:33;;;;;;;1.88;0.90;;;16.30;90.00;;;;;;5422009;26;20327;-87
2024/04/15 04:41:03;;;;;;;1.70;0.80;;;16.30;90.00;;;;;;5421065;26;19991;-87
2024/04/15 04:43:31;;;;;;;2.10;1.10;;;16.30;90.00;;;;;;5420662;26;19994;-87
2024/04/15 04:46:16;;;;;;;1.70;0.80;;;16.30;89.90;;;;;;5423573;26;20006;-86
2024/04/15 04:49:07;;;;;;;;;;;;;;;;;;;;;
2024/04/15 04:51:51;;;;;;;1.52;0.95;;;16.30;90.00;;;;;;5452186;26;19995;-87
2024/04/15 04:54:34;;;;;;;2.53;1.08;;;16.30;90.00;;;;;;5420704;26;20006;-87
2024/04/15 04:58:02;;;;;;;1.95;1.00;;;16.30;90.00;;;;;;5421647;26;19995;-87
2024/04/15 05:24:45;;;;;;;2.53;1.13;;;16.30;90.00;;;;;;5369799;26;20097;-84
2024/04/15 05:27:14;;;;;;;1.67;0.95;;;16.20;90.00;;;;;;5344862;26;20008;-86
2024/04/15 05:29:39;;;;;;;1.95;0.95;;;16.30;89.90;;;;;;5311796;26;20493;-85
2024/04/15 05:32:08;;;;;;;1.90;1.00;;;16.20;89.70;;;;;;5314659;26;20008;-85
2024/04/15 05:34:35;;;;;;;1.75;1.00;;;16.10;89.70;;;;;;5339548;21;19997;-82
2024/04/15 05:37:01;;;;;;;3.28;1.20;;;16.30;89.70;;;;;;5524079;26;20009;-84
2024/04/15 05:39:26;;;;;;;2.55;1.10;;;16.30;89.90;;;;;;5492093;26;20525;-83
2024/04/15 05:41:52;;;;;;;2.33;1.10;;;16.30;90.00;;;;;;5493363;26;20469;-82
2024/04/15 05:44:17;;;;;;;3.10;1.40;;;16.40;90.00;;;;;;5524347;26;19997;-83
2024/04/15 05:46:48;;;;;;;2.70;1.40;;;16.30;89.80;;;;;;5487903;26;19998;-82
2024/04/15 05:49:14;;;;;;;5.33;1.70;;;16.30;89.60;;;;;;5455488;26;19998;-82
2024/04/15 05:51:39;;;;;;;4.63;1.70;;;16.20;89.60;;;;;;5487333;26;20008;-82
2024/04/15 05:54:05;;;;;;;4.60;1.50;;;16.30;89.60;;;;;;5487504;26;19994;-81
2024/04/15 05:56:30;;;;;;;4.90;1.88;;;16.30;89.60;;;;;;5455310;26;20008;-82
2024/04/15 05:58:56;;;;;;;4.30;1.88;;;16.30;89.50;;;;;;5488009;26;20006;-83
2024/04/15 06:01:21;;;;;;;4.22;1.80;;;16.30;89.30;;;;;;5486997;26;19994;-82
2024/04/15 06:03:47;;;;;;;3.50;1.63;;;16.30;89.40;;;;;;5486572;26;20070;-82
2024/04/15 06:06:13;;;;;;;5.45;1.70;;;16.30;89.40;;;;;;5486979;26;20002;-82
2024/04/15 06:08:39;;;;;;;5.82;1.95;;;16.40;89.50;;;;;;5455774;26;19998;-82
2024/04/15 06:11:05;;;;;;;3.30;1.70;;;16.30;89.30;;;;;;5458679;26;19995;-83
2024/04/15 06:13:30;;;;;;;4.32;1.70;;;16.40;89.40;;;;;;5490507;26;20460;-82
2024/04/15 06:15:56;;;;;;;3.55;1.60;;;16.40;89.30;;;;;;5458234;26;20476;-83
2024/04/15 06:18:21;;;;;;;4.25;1.60;;;16.40;89.30;;;;;;5458285;26;19994;-82
2024/04/15 06:20:47;;;;;;;3.10;1.75;;;16.20;89.20;;;;;;5458507;26;20042;-81
2024/04/15 06:23:13;;;;;;;3.30;1.70;;;16.30;89.30;;;;;;5490929;26;20006;-83
2024/04/15 06:25:39;;;;;;;3.10;1.50;;;16.40;89.30;;;;;;5491032;26;19994;-83
2024/04/15 06:28:04;;;;;;;3.53;1.60;;;16.30;89.20;;;;;;5490258;26;20011;-82
2024/04/15 06:30:30;;;;;;;3.55;1.70;;;16.30;89.20;;;;;;5457877;26;19994;-83
2024/04/15 06:32:55;;;;;;;3.20;1.65;;;16.40;89.20;;;;;;5490791;26;20330;-83
2024/04/15 06:35:21;;;;;;;3.83;1.70;;;16.40;89.30;;;;;;5490503;26;20014;-83
2024/04/15 06:37:47;;;;;;;4.80;1.90;;;16.40;89.30;;;;;;5456805;26;19998;-83
2024/04/15 06:40:12;;;;;;;4.55;1.95;;;16.40;89.30;;;;;;5490556;26;20354;-82
2024/04/15 06:42:38;;;;;;;4.13;1.80;;;16.40;89.20;;;;;;5490686;26;20005;-84
2024/04/15 06:45:03;;;;;;;3.33;1.60;;;16.40;89.30;;;;;;5457207;26;20005;-83
2024/04/15 06:47:29;;;;;;;3.38;1.52;;;16.50;89.40;;;;;;5489966;26;20002;-82
2024/04/15 06:49:55;;;;;;;3.50;1.92;;;16.50;89.40;;;;;;5490452;26;19997;-82
2024/04/15 06:52:21;;;;;;;3.10;1.80;;;16.60;89.30;;;;;;5458365;26;19998;-80
2024/04/15 06:54:46;;;;;;;4.18;1.80;;;16.50;89.20;;;;;;5458179;26;19994;-82
2024/04/15 06:57:12;;;;;;;4.15;2.00;;;16.50;89.00;;;;;;5458539;26;19994;-81
2024/04/15 06:59:37;;;;;;;3.58;2.00;;;16.50;89.10;;;;;;5490139;26;20002;-81
2024/04/15 07:02:04;;;;;;;4.90;2.10;;;16.50;89.30;;;;;;5457584;26;19998;-81
2024/04/15 07:04:30;;;;;;;4.65;1.85;;;16.50;89.30;;;;;;5490485;26;19994;-83
2024/04/15 07:06:55;;;;;;;4.13;1.80;;;16.60;89.20;;;;;;5490105;26;20797;-81
2024/04/15 07:09:24;;;;;;;4.13;1.88;;;16.50;89.20;;;;;;5490108;26;19994;-80
2024/04/15 07:11:49;;;;;;;3.05;1.70;;;16.60;89.20;;;;;;5490125;26;19994;-81
2024/04/15 07:14:15;;;;;;;4.13;2.00;;;16.60;89.00;;;;;;5457849;26;20001;-79
2024/04/15 07:16:41;;;;;;;3.83;1.75;;;16.60;89.00;;;;;;5490443;26;20006;-80
2024/04/15 08:09:01;;;;;;;4.38;2.40;;;16.50;89.30;;;;;;3435013;21;19993;-82
2024/04/15 08:11:27;;;;;;;4.43;2.65;;;16.50;89.40;;;;;;5417661;26;20049;-81
2024/04/15 08:13:52;;;;;;;4.18;2.40;;;16.50;89.40;;;;;;5451137;26;19995;-79
2024/04/15 09:03:53;;;;;;;;;;;;;;;;;;;;;
2024/04/15 09:09:42;;;;;;;5.68;3.20;;;16.60;88.90;;;;;;5238966;27;20031;-81
2024/04/15 09:26:44;;;;;;;5.63;3.42;;;16.70;89.00;;;;;;5076826;28;20144;-83
2024/04/15 10:17:34;;;;;;;6.22;3.67;;;16.90;88.10;;;;;;5451547;26;20010;-83
2024/04/15 10:20:09;;;;;;;6.25;3.75;;;16.90;88.20;;;;;;5453268;26;20002;-81
2024/04/15 10:22:36;;;;;;;5.28;3.50;;;16.80;88.10;;;;;;5453276;26;19994;-80
2024/04/15 10:25:02;;;;;;;5.13;3.53;;;16.90;88.20;;;;;;5464942;26;20323;-81
2024/04/15 10:27:28;;;;;;;6.22;3.55;;;16.90;88.20;;;;;;5489833;26;19994;-81
2024/04/15 10:29:53;;;;;;;5.55;3.80;;;16.90;88.10;;;;;;5489970;26;20001;-82
2024/04/15 10:32:25;;;;;;;5.15;3.35;;;16.90;88.00;;;;;;5489478;26;19997;-81
2024/04/15 10:34:54;;;;;;;5.70;3.60;;;17.00;88.10;;;;;;5456747;26;19986;-81
2024/04/15 10:37:29;;;;;;;5.80;3.60;;;17.00;87.90;;;;;;5457875;26;20272;-81
2024/04/15 10:40:01;;;;;;;5.82;3.65;;;17.00;87.90;;;;;;5489573;26;20026;-80
2024/04/15 10:42:27;;;;;;;5.55;3.50;;;17.10;88.00;;;;;;5457308;26;20067;-83
2024/04/15 11:13:40;;;;;;;4.88;3.03;;;17.20;87.40;;;;;;5485714;26;19994;-81
2024/04/15 11:18:41;;;;;;;5.07;3.28;;;17.20;87.20;;;;;;5461936;20;20038;-80
2024/04/15 11:21:08;;;;;;;4.75;3.08;;;17.20;87.20;;;;;;5452270;26;19990;-82
2024/04/15 11:23:34;;;;;;;8.18;3.60;;;17.20;87.20;;;;;;5451367;26;19997;-83
2024/04/15 11:26:02;;;;;;;5.90;3.50;;;17.20;87.30;;;;;;5452090;26;19995;-82
2024/04/15 11:28:29;;;;;;;5.43;3.20;;;17.10;87.30;;;;;;5451253;26;20003;-81
2024/04/15 11:30:57;;;;;;;5.30;3.45;;;17.20;87.30;;;;;;5452854;26;19986;-81
2024/04/15 11:33:23;;;;;;;4.95;3.15;;;17.20;87.20;;;;;;5452507;26;19994;-81
2024/04/15 11:35:50;;;;;;;5.00;3.00;;;17.10;87.20;;;;;;5450553;26;19991;-82
2024/04/15 11:38:16;;;;;;;4.28;3.10;;;17.10;87.20;;;;;;5451140;26;20040;-81
2024/04/15 11:40:41;;;;;;;4.47;2.92;;;17.20;87.30;;;;;;5449981;26;19998;-83
2024/04/15 11:43:07;;;;;;;4.82;3.10;;;17.20;87.40;;;;;;5450398;26;20339;-82
2024/04/15 11:50:42;;;;;;;4.95;2.95;;;17.20;87.20;;;;;;5413841;26;20035;-81
2024/04/15 11:53:08;;;;;;;4.43;2.75;;;17.20;87.10;;;;;;5416141;26;19991;-82
2024/04/15 12:09:58;;;;;;;;;;;;;;;;;;;;;
2024/04/15 12:53:14;;;;;;;4.00;2.30;;;17.00;87.40;;;;;;5807179;20;20077;-82
2024/04/15 12:55:45;;;;;;;4.10;2.40;;;17.10;87.50;;;;;;5379908;26;20028;-82
2024/04/15 12:58:11;;;;;;;3.83;2.20;;;17.00;87.40;;;;;;5378312;26;20469;-83
2024/04/15 13:00:37;;;;;;;3.45;2.10;;;17.00;87.40;;;;;;5378706;26;20011;-81
2024/04/15 13:03:03;;;;;;;4.13;2.08;;;17.10;87.40;;;;;;5379857;26;20000;-83
2024/04/15 13:05:28;;;;;;;3.85;2.20;;;17.10;87.40;;;;;;5377293;26;20003;-81
2024/04/15 13:07:54;;;;;;;4.00;2.13;;;17.00;87.40;;;;;;5379641;26;20007;-83
2024/04/15 13:10:20;;;;;;;4.10;2.03;;;17.10;87.40;;;;;;5379196;26;20544;-82
2024/04/15 13:12:46;;;;;;;3.70;2.25;;;17.00;87.40;;;;;;5379783;26;20003;-81
2024/04/15 14:02:51;;;;;;;3.47;1.70;;;16.90;87.40;;;;;;5481196;26;20354;-81
2024/04/15 14:05:17;;;;;;;3.67;1.83;;;16.90;87.40;;;;;;5483476;26;20001;-81
2024/04/15 14:07:43;;;;;;;3.08;1.75;;;16.80;87.10;;;;;;5483953;26;19996;-81
2024/04/15 14:10:09;;;;;;;3.15;1.70;;;16.90;87.30;;;;;;5451299;26;20002;-81
2024/04/15 14:12:34;;;;;;;3.20;1.80;;;16.80;87.20;;;;;;5451500;26;19998;-83
2024/04/15 14:15:01;;;;;;;2.83;1.70;;;16.80;87.00;;;;;;5483542;26;20408;-81
2024/04/15 14:17:27;;;;;;;3.40;1.60;;;16.90;87.20;;;;;;5483821;26;19998;-83
2024/04/15 14:19:52;;;;;;;2.95;1.60;;;16.80;87.20;;;;;;5483475;26;19996;-81
2024/04/15 14:22:18;;;;;;;4.57;1.92;;;16.80;87.30;;;;;;5483316;26;20002;-83
2024/04/15 14:24:45;;;;;;;3.30;1.73;;;16.80;87.10;;;;;;5483557;26;20022;-81
2024/04/15 14:27:10;;;;;;;3.28;1.52;;;16.80;87.30;;;;;;5483272;26;20473;-80
2024/04/15 14:29:36;;;;;;;2.47;1.50;;;16.80;87.30;;;;;;5452576;26;19990;-82
2024/04/15 14:32:03;;;;;;;3.75;1.90;;;16.80;86.90;;;;;;5487426;26;20445;-82
2024/04/15 14:34:28;;;;;;;2.53;1.50;;;16.80;87.40;;;;;;5455147;26;20442;-82
2024/04/15 14:36:56;;;;;;;3.45;1.50;;;16.80;87.50;;;;;;5487567;26;20040;-81
2024/04/15 14:39:22;;;;;;;3.50;1.70;;;16.80;87.60;;;;;;5487301;26;19994;-82
2024/04/15 14:41:48;;;;;;;3.72;1.80;;;16.80;87.60;;;;;;5487266;26;20767;-81
2024/04/15 14:44:13;;;;;;;2.42;1.50;;;16.70;87.60;;;;;;5486449;26;20002;-80
2024/04/15 14:46:39;;;;;;;2.92;1.33;;;16.80;87.60;;;;;;5487483;26;20325;-81
2024/04/15 14:49:07;;;;;;;2.67;1.50;;;16.70;87.20;;;;;;5486543;26;20005;-81
2024/04/15 14:51:33;;;;;;;3.53;1.40;;;16.70;87.30;;;;;;5486342;26;19997;-82
2024/04/15 14:53:58;;;;;;;3.33;1.50;;;16.80;87.10;;;;;;5486748;26;20502;-82
2024/04/15 14:56:25;;;;;;;2.13;1.40;;;16.70;87.20;;;;;;5486719;26;20067;-81
2024/04/15 14:58:51;;;;;;;3.05;1.50;;;16.80;87.50;;;;;;5454953;26;20018;-82
2024/04/15 15:01:16;;;;;;;2.00;1.10;;;16.80;87.70;;;;;;5431509;26;20901;-81
2024/04/15 15:03:42;;;;;;;2.17;1.20;;;16.70;87.50;;;;;;5450298;26;20023;-81
2024/04/15 15:06:08;;;;;;;3.25;1.52;;;16.70;87.40;;;;;;5450322;26;19987;-79
2024/04/15 15:08:34;;;;;;;2.83;1.30;;;16.70;87.30;;;;;;5449625;26;20005;-81
2024/04/15 15:11:02;;;;;;;2.83;1.23;;;16.70;87.50;;;;;;5449725;26;19994;-79
2024/04/15 15:13:28;;;;;;;3.58;1.60;;;16.70;87.20;;;;;;5450051;26;19991;-81
2024/04/15 15:15:54;;;;;;;4.00;1.40;;;16.70;87.50;;;;;;5450295;26;20530;-82
2024/04/15 15:18:20;;;;;;;2.22;1.20;;;16.80;87.50;;;;;;5418565;26;20018;-83
2024/04/15 15:20:46;;;;;;;2.63;1.48;;;16.70;87.60;;;;;;5449589;26;20092;-82
2024/04/15 15:23:11;;;;;;;3.13;1.25;;;16.70;87.40;;;;;;5450619;26;20005;-79
2024/04/15 15:25:37;;;;;;;2.80;1.30;;;16.70;87.40;;;;;;5450249;26;19995;-81
2024/04/15 15:28:03;;;;;;;3.15;1.40;;;16.70;87.30;;;;;;5419173;26;20030;-80
2024/04/15 15:30:29;;;;;;;2.42;1.23;;;16.60;87.60;;;;;;5450365;26;20073;-81
2024/04/15 15:32:54;;;;;;;1.80;1.20;;;16.70;87.60;;;;;;5450035;26;20002;-79
2024/04/15 15:35:20;;;;;;;3.03;1.40;;;16.60;87.60;;;;;;5449549;26;20001;-82
2024/04/15 15:37:46;;;;;;;1.50;1.20;;;16.50;87.50;;;;;;5417783;26;19998;-81
2024/04/15 15:40:11;;;;;;;1.98;1.10;;;16.70;87.20;;;;;;5449220;26;20009;-80
2024/04/15 15:42:37;;;;;;;2.05;1.20;;;16.50;87.40;;;;;;5417697;26;19995;-78
2024/04/15 15:45:03;;;;;;;1.60;1.10;;;16.60;87.20;;;;;;5416732;26;20006;-80
2024/04/15 15:47:29;;;;;;;2.33;1.38;;;16.60;87.00;;;;;;5417097;26;19998;-83
2024/04/15 15:49:55;;;;;;;2.72;1.10;;;16.60;86.80;;;;;;5416831;26;20011;-84
2024/04/15 15:52:22;;;;;;;2.58;1.20;;;16.70;86.50;;;;;;5417560;26;19994;-86
2024/04/15 15:54:48;;;;;;;2.90;1.27;;;16.60;86.30;;;;;;5453423;26;20010;-83
2024/04/15 15:57:13;;;;;;;2.30;1.20;;;16.60;86.40;;;;;;5484600;26;20035;-85
2024/04/15 15:59:39;;;;;;;1.98;1.10;;;16.60;86.00;;;;;;5445873;26;20006;-83
2024/04/15 16:02:05;;;;;;;3.25;1.45;;;16.60;86.00;;;;;;5484991;26;20487;-82
2024/04/15 16:04:45;;;;;;;3.53;1.40;;;16.60;86.20;;;;;;5429994;26;20318;-83
2024/04/15 16:07:14;;;;;;;4.30;1.50;;;16.60;87.20;;;;;;5393659;26;20072;-83
2024/04/15 16:09:39;;;;;;;3.28;1.42;;;16.60;87.60;;;;;;5386446;26;20000;-82
2024/04/15 16:12:06;;;;;;;5.80;2.28;;;16.60;87.70;;;;;;5361853;26;20451;-82
2024/04/15 16:17:19;;;;;;;4.82;2.20;;;16.60;87.90;;;;;;5359028;26;20057;-84
2024/04/15 16:19:44;;;;;;;4.00;1.98;;;16.60;87.90;;;;;;5361392;26;20005;-81
2024/04/15 16:22:22;;;;;;;5.00;2.28;;;16.50;87.90;;;;;;5361058;26;20082;-85
2024/04/15 16:24:48;;;;;;;5.82;2.22;;;16.00;87.60;;;;;;5367578;21;20019;-84
2024/04/15 16:27:21;;;;;;;6.28;2.42;;;16.70;87.90;;;;;;5360164;26;20005;-85
2024/04/15 16:32:47;;;;;;;6.18;2.80;;;16.50;88.00;;;;;;5360079;26;20011;-81
2024/04/15 16:35:14;;;;;;;6.38;2.92;;;16.40;88.00;;;;;;5358365;26;20403;-84
2024/04/15 16:37:39;;;;;;;9.15;3.28;;;16.50;88.10;;;;;;5357688;26;19997;-79
2024/04/15 16:40:05;;;;;;;7.35;3.20;;;16.50;88.10;;;;;;5358628;26;19997;-80
2024/04/15 16:42:31;;;;;;;7.90;3.38;;;16.50;88.00;;;;;;5360074;26;20005;-82
2024/04/15 16:44:56;;;;;;;8.43;3.30;;;16.50;88.00;;;;;;5359004;26;20004;-82
2024/04/15 16:47:23;;;;;;;8.75;3.60;;;16.50;88.30;;;;;;5359832;26;20001;-82
2024/04/15 16:49:48;;;;;;;7.82;3.72;;;16.50;88.30;;;;;;5359091;26;20003;-83
2024/04/15 16:52:14;;;;;;;6.90;3.33;;;16.50;88.40;;;;;;5359411;26;20001;-81
2024/04/15 16:54:39;;;;;;;9.63;4.28;;;16.50;88.30;;;;;;5359637;26;20344;-80
2024/04/15 16:57:05;;;;;;;9.38;3.90;;;16.50;88.20;;;;;;5360285;26;20015;-80
2024/04/15 16:59:30;;;;;;;8.63;4.43;;;16.50;88.20;;;;;;5359759;26;20453;-79
2024/04/15 17:01:56;;;;;;;10.38;3.75;;;16.40;88.10;;;;;;5362059;26;20008;-86
2024/04/15 17:04:22;;;;;;;7.85;4.05;;;16.40;88.10;;;;;;5361212;26;20621;-79
2024/04/15 17:06:48;;;;;;;9.77;4.47;;;16.50;88.10;;;;;;5359714;26;20051;-80
2024/04/15 17:09:14;;;;;;;8.90;4.10;;;16.40;88.00;;;;;;5361265;26;20001;-81
2024/04/15 17:11:39;;;;;;;8.07;4.00;;;16.50;88.10;;;;;;5360732;26;20001;-82
2024/04/15 17:14:05;;;;;;;11.27;4.78;;;16.40;88.00;;;;;;5358377;26;20005;-81
2024/04/15 17:16:31;;;;;;;10.02;4.20;;;16.40;88.00;;;;;;5346062;26;20000;-82
2024/04/15 17:18:56;;;;;;;9.07;4.20;;;16.40;88.00;;;;;;5346334;26;20001;-80
2024/04/15 17:21:22;;;;;;;9.05;4.32;;;16.50;87.90;;;;;;5344166;26;20011;-87
2024/04/15 17:23:47;;;;;;;10.27;4.40;;;16.50;87.90;;;;;;5342434;26;20073;-79
2024/04/15 17:26:14;;;;;;;8.90;4.20;;;16.40;87.80;;;;;;5344998;26;20001;-85
2024/04/15 17:28:40;;;;;;;11.48;4.80;;;16.50;87.90;;;;;;5345960;26;20703;-83
2024/04/15 17:31:05;;;;;;;9.63;4.38;;;16.40;87.90;;;;;;5344951;26;20013;-84
2024/04/15 17:33:31;;;;;;;9.45;4.03;;;16.50;88.00;;;;;;5343242;26;20008;-83
2024/04/15 17:35:57;;;;;;;11.30;4.03;;;16.50;87.90;;;;;;5345405;26;20012;-83
2024/04/15 17:38:23;;;;;;;8.93;4.10;;;16.40;87.90;;;;;;5346183;26;20007;-84
2024/04/15 17:40:51;;;;;;;8.82;4.30;;;16.40;87.80;;;;;;5344791;26;19997;-82
2024/04/15 17:43:17;;;;;;;9.68;4.35;;;16.30;87.80;;;;;;5344495;26;20041;-85
2024/04/15 17:45:43;;;;;;;8.85;3.88;;;16.50;87.80;;;;;;5343546;26;20000;-82
2024/04/15 17:48:10;;;;;;;8.75;3.83;;;16.40;87.80;;;;;;5343354;26;20012;-83
2024/04/15 17:50:35;;;;;;;10.35;4.00;;;16.40;87.70;;;;;;5341299;26;20393;-85
2024/04/15 17:53:01;;;;;;;9.85;4.38;;;16.40;87.70;;;;;;5343372;26;19997;-85
2024/04/15 17:55:30;;;;;;;10.15;4.45;;;16.50;87.80;;;;;;5342896;26;20000;-83
2024/04/15 17:57:57;;;;;;;8.57;4.32;;;16.40;87.70;;;;;;5343606;26;20054;-84
2024/04/15 18:00:23;;;;;;;8.75;4.25;;;16.40;87.80;;;;;;5341047;26;20005;-82
2024/04/15 18:02:49;;;;;;;9.13;4.10;;;16.40;87.80;;;;;;5342686;26;20001;-83
2024/04/15 18:05:16;;;;;;;8.32;3.75;;;16.40;87.70;;;;;;5341408;26;20019;-82
2024/04/15 18:07:42;;;;;;;8.00;3.60;;;16.30;87.60;;;;;;5343033;26;20037;-81
2024/04/15 18:10:07;;;;;;;8.75;4.10;;;16.40;87.70;;;;;;5342852;26;20001;-82
2024/04/15 18:12:33;;;;;;;8.63;4.28;;;16.40;87.60;;;;;;5343101;26;20001;-82
2024/04/15 18:14:58;;;;;;;11.50;4.53;;;16.20;87.40;;;;;;5342845;26;20005;-79
2024/04/15 18:17:25;;;;;;;10.43;4.45;;;16.50;87.90;;;;;;5342276;26;20807;-83
2024/04/15 18:19:50;;;;;;;7.68;3.72;;;16.30;87.70;;;;;;5340791;26;21079;-82